sensor_id;sensor_type;location;lat;lon;timestamp;temperature;humidity
4505;DHT22;2265;48.794;9.520;2022-12-18T00:00:50;-8.00;98.00
4505;DHT22;2265;48.794;9.520;2022-12-18T00:03:17;-7.90;98.00
4505;DHT22;2265;48.794;9.520;2022-12-18T00:05:50;-8.10;98.00
4505;DHT22;2265;48.794;9.520;2022-12-18T00:08:19;-8.10;98.00
4505;DHT22;2265;48.794;9.520;2022-12-18T00:10:46;-8.20;98.00
4505;DHT22;2265;48.794;9.520;2022-12-18T00:13:13;-8.30;98.00
4505;DHT22;2265;48.794;9.520;2022-12-18T00:15:42;-8.30;98.00
4505;DHT22;2265;48.794;9.520;2022-12-18T00:18:10;-8.40;98.00
4505;DHT22;2265;48.794;9.520;2022-12-18T00:20:37;-8.30;98.00
4505;DHT22;2265;48.794;9.520;2022-12-18T00:23:06;-8.30;98.00
4505;DHT22;2265;48.794;9.520;2022-12-18T00:25:33;-8.40;98.00
4505;DHT22;2265;48.794;9.520;2022-12-18T00:28:01;-8.30;98.00
4505;DHT22;2265;48.794;9.520;2022-12-18T00:30:28;-8.30;98.00
4505;DHT22;2265;48.794;9.520;2022-12-18T00:32:57;-8.30;98.00
4505;DHT22;2265;48.794;9.520;2022-12-18T00:35:24;-8.40;98.00
4505;DHT22;2265;48.794;9.520;2022-12-18T00:37:51;-8.40;98.00
4505;DHT22;2265;48.794;9.520;2022-12-18T00:40:18;-8.50;98.00
4505;DHT22;2265;48.794;9.520;2022-12-18T00:42:46;-8.50;98.00
4505;DHT22;2265;48.794;9.520;2022-12-18T00:45:21;-8.30;98.00
4505;DHT22;2265;48.794;9.520;2022-12-18T00:47:51;-8.30;98.00
4505;DHT22;2265;48.794;9.520;2022-12-18T00:50:20;-8.50;98.00
4505;DHT22;2265;48.794;9.520;2022-12-18T00:52:47;-8.50;98.00
4505;DHT22;2265;48.794;9.520;2022-12-18T00:55:18;-8.50;98.00
4505;DHT22;2265;48.794;9.520;2022-12-18T00:57:45;-8.40;98.00
4505;DHT22;2265;48.794;9.520;2022-12-18T01:00:13;-8.40;98.00
4505;DHT22;2265;48.794;9.520;2022-12-18T01:02:41;-8.30;98.00
4505;DHT22;2265;48.794;9.520;2022-12-18T01:05:09;-8.40;98.00
4505;DHT22;2265;48.794;9.520;2022-12-18T01:07:38;-8.30;98.00
4505;DHT22;2265;48.794;9.520;2022-12-18T01:10:07;-8.30;98.00
4505;DHT22;2265;48.794;9.520;2022-12-18T01:12:35;-8.50;98.00
4505;DHT22;2265;48.794;9.520;2022-12-18T01:15:03;-8.40;98.00
4505;DHT22;2265;48.794;9.520;2022-12-18T01:17:31;-8.30;98.00
4505;DHT22;2265;48.794;9.520;2022-12-18T01:19:58;-8.30;98.00
4505;DHT22;2265;48.794;9.520;2022-12-18T01:22:25;-8.30;98.00
4505;DHT22;2265;48.794;9.520;2022-12-18T01:24:54;-8.30;98.00
4505;DHT22;2265;48.794;9.520;2022-12-18T01:27:22;-8.60;98.00
4505;DHT22;2265;48.794;9.520;2022-12-18T01:29:49;-8.60;98.00
4505;DHT22;2265;48.794;9.520;2022-12-18T01:32:16;-8.50;98.00
4505;DHT22;2265;48.794;9.520;2022-12-18T01:34:44;-8.60;98.00
4505;DHT22;2265;48.794;9.520;2022-12-18T01:37:11;-8.60;98.00
4505;DHT22;2265;48.794;9.520;2022-12-18T01:39:38;-8.50;98.00
4505;DHT22;2265;48.794;9.520;2022-12-18T01:42:11;-8.40;98.00
4505;DHT22;2265;48.794;9.520;2022-12-18T01:45:03;-8.50;98.00
4505;DHT22;2265;48.794;9.520;2022-12-18T01:47:35;-8.50;98.00
4505;DHT22;2265;48.794;9.520;2022-12-18T01:50:06;-8.40;98.00
4505;DHT22;2265;48.794;9.520;2022-12-18T01:52:34;-8.50;98.00
4505;DHT22;2265;48.794;9.520;2022-12-18T01:55:06;-8.60;98.00
4505;DHT22;2265;48.794;9.520;2022-12-18T01:57:35;-8.60;98.00
4505;DHT22;2265;48.794;9.520;2022-12-18T02:00:06;-8.80;98.00
4505;DHT22;2265;48.794;9.520;2022-12-18T02:02:36;-8.80;98.00
4505;DHT22;2265;48.794;9.520;2022-12-18T02:05:04;-8.80;98.00
4505;DHT22;2265;48.794;9.520;2022-12-18T02:07:37;-8.50;98.00
4505;DHT22;2265;48.794;9.520;2022-12-18T02:10:13;-8.50;98.00
4505;DHT22;2265;48.794;9.520;2022-12-18T02:12:51;-8.40;98.00
4505;DHT22;2265;48.794;9.520;2022-12-18T02:15:24;-8.50;98.00
4505;DHT22;2265;48.794;9.520;2022-12-18T02:17:56;-8.40;98.00
4505;DHT22;2265;48.794;9.520;2022-12-18T02:20:30;-8.40;98.00
4505;DHT22;2265;48.794;9.520;2022-12-18T02:23:06;-8.60;98.00
4505;DHT22;2265;48.794;9.520;2022-12-18T02:28:40;-8.30;98.00
4505;DHT22;2265;48.794;9.520;2022-12-18T02:31:11;-8.30;98.00
4505;DHT22;2265;48.794;9.520;2022-12-18T02:33:42;-8.20;98.00
4505;DHT22;2265;48.794;9.520;2022-12-18T02:36:12;-8.20;98.00
4505;DHT22;2265;48.794;9.520;2022-12-18T02:38:42;-8.20;98.00
4505;DHT22;2265;48.794;9.520;2022-12-18T02:41:10;-8.30;98.00
4505;DHT22;2265;48.794;9.520;2022-12-18T02:43:40;-8.40;98.00
4505;DHT22;2265;48.794;9.520;2022-12-18T02:46:25;-8.30;98.00
4505;DHT22;2265;48.794;9.520;2022-12-18T02:48:57;-8.50;98.00
4505;DHT22;2265;48.794;9.520;2022-12-18T02:51:30;-8.40;98.00
4505;DHT22;2265;48.794;9.520;2022-12-18T02:54:03;-8.30;98.00
4505;DHT22;2265;48.794;9.520;2022-12-18T02:56:36;-8.40;98.00
4505;DHT22;2265;48.794;9.520;2022-12-18T02:59:11;-8.50;98.00
4505;DHT22;2265;48.794;9.520;2022-12-18T03:01:45;-8.30;98.00
4505;DHT22;2265;48.794;9.520;2022-12-18T03:04:17;-8.30;98.00
4505;DHT22;2265;48.794;9.520;2022-12-18T03:06:49;-8.30;98.00
4505;DHT22;2265;48.794;9.520;2022-12-18T03:09:21;-8.30;98.00
4505;DHT22;2265;48.794;9.520;2022-12-18T03:11:54;-8.30;98.00
4505;DHT22;2265;48.794;9.520;2022-12-18T03:14:42;-8.40;98.00
4505;DHT22;2265;48.794;9.520;2022-12-18T03:17:13;-8.30;98.00
4505;DHT22;2265;48.794;9.520;2022-12-18T03:19:42;-8.30;98.00
4505;DHT22;2265;48.794;9.520;2022-12-18T03:22:11;-8.30;98.00
4505;DHT22;2265;48.794;9.520;2022-12-18T03:24:39;-8.20;98.00
4505;DHT22;2265;48.794;9.520;2022-12-18T03:27:10;-8.20;98.00
4505;DHT22;2265;48.794;9.520;2022-12-18T03:29:42;-8.20;98.00
4505;DHT22;2265;48.794;9.520;2022-12-18T03:32:12;-8.20;98.00
4505;DHT22;2265;48.794;9.520;2022-12-18T03:34:42;-8.20;98.00
4505;DHT22;2265;48.794;9.520;2022-12-18T03:37:11;-8.10;98.00
4505;DHT22;2265;48.794;9.520;2022-12-18T03:39:38;-8.10;98.00
4505;DHT22;2265;48.794;9.520;2022-12-18T03:42:08;-8.00;98.00
4505;DHT22;2265;48.794;9.520;2022-12-18T03:44:44;-8.20;98.00
4505;DHT22;2265;48.794;9.520;2022-12-18T03:47:15;-8.30;98.00
4505;DHT22;2265;48.794;9.520;2022-12-18T03:49:48;-8.40;98.00
4505;DHT22;2265;48.794;9.520;2022-12-18T03:52:20;-8.30;98.00
4505;DHT22;2265;48.794;9.520;2022-12-18T03:54:51;-8.50;98.00
4505;DHT22;2265;48.794;9.520;2022-12-18T03:57:20;-8.40;98.00
4505;DHT22;2265;48.794;9.520;2022-12-18T03:59:54;-8.40;98.00
4505;DHT22;2265;48.794;9.520;2022-12-18T04:02:23;-8.40;98.00
4505;DHT22;2265;48.794;9.520;2022-12-18T04:04:53;-8.50;98.00
4505;DHT22;2265;48.794;9.520;2022-12-18T04:07:22;-8.60;98.00
4505;DHT22;2265;48.794;9.520;2022-12-18T04:09:50;-8.60;98.00
4505;DHT22;2265;48.794;9.520;2022-12-18T04:12:17;-8.60;98.00
4505;DHT22;2265;48.794;9.520;2022-12-18T04:14:45;-8.60;98.00
4505;DHT22;2265;48.794;9.520;2022-12-18T04:17:13;-8.70;98.00
4505;DHT22;2265;48.794;9.520;2022-12-18T04:19:41;-8.80;98.00
4505;DHT22;2265;48.794;9.520;2022-12-18T04:22:09;-8.90;98.00
4505;DHT22;2265;48.794;9.520;2022-12-18T04:24:37;-8.80;98.00
4505;DHT22;2265;48.794;9.520;2022-12-18T04:27:04;-8.80;98.00
4505;DHT22;2265;48.794;9.520;2022-12-18T04:29:31;-8.80;98.00
4505;DHT22;2265;48.794;9.520;2022-12-18T04:31:59;-8.70;98.00
4505;DHT22;2265;48.794;9.520;2022-12-18T04:34:28;-8.70;98.00
4505;DHT22;2265;48.794;9.520;2022-12-18T04:36:56;-8.70;98.00
4505;DHT22;2265;48.794;9.520;2022-12-18T04:39:23;-8.70;98.00
4505;DHT22;2265;48.794;9.520;2022-12-18T04:41:50;-8.60;98.00
4505;DHT22;2265;48.794;9.520;2022-12-18T04:44:17;-8.50;98.00
4505;DHT22;2265;48.794;9.520;2022-12-18T04:46:44;-8.40;98.00
4505;DHT22;2265;48.794;9.520;2022-12-18T04:49:12;-8.50;98.00
4505;DHT22;2265;48.794;9.520;2022-12-18T04:51:40;-8.40;98.00
4505;DHT22;2265;48.794;9.520;2022-12-18T04:54:07;-8.60;98.00
4505;DHT22;2265;48.794;9.520;2022-12-18T04:56:34;-8.60;98.00
4505;DHT22;2265;48.794;9.520;2022-12-18T04:59:01;-8.60;98.00
4505;DHT22;2265;48.794;9.520;2022-12-18T05:01:28;-8.60;98.00
4505;DHT22;2265;48.794;9.520;2022-12-18T05:03:55;-8.40;98.00
4505;DHT22;2265;48.794;9.520;2022-12-18T05:06:23;-8.30;98.00
4505;DHT22;2265;48.794;9.520;2022-12-18T05:08:51;-8.30;98.00
4505;DHT22;2265;48.794;9.520;2022-12-18T05:11:18;-8.20;98.00
4505;DHT22;2265;48.794;9.520;2022-12-18T05:13:45;-8.20;98.00
4505;DHT22;2265;48.794;9.520;2022-12-18T05:16:14;-8.20;98.00
4505;DHT22;2265;48.794;9.520;2022-12-18T05:18:41;-8.10;98.00
4505;DHT22;2265;48.794;9.520;2022-12-18T05:21:08;-8.00;98.00
4505;DHT22;2265;48.794;9.520;2022-12-18T05:23:35;-7.70;98.00
4505;DHT22;2265;48.794;9.520;2022-12-18T05:26:06;-7.90;98.00
4505;DHT22;2265;48.794;9.520;2022-12-18T05:28:35;-7.80;98.00
4505;DHT22;2265;48.794;9.520;2022-12-18T05:31:04;-7.70;98.00
4505;DHT22;2265;48.794;9.520;2022-12-18T05:33:33;-7.70;98.00
4505;DHT22;2265;48.794;9.520;2022-12-18T05:36:04;-7.90;98.00
4505;DHT22;2265;48.794;9.520;2022-12-18T05:38:33;-7.90;98.00
4505;DHT22;2265;48.794;9.520;2022-12-18T05:41:00;-7.80;98.00
4505;DHT22;2265;48.794;9.520;2022-12-18T05:43:29;-7.70;98.00
4505;DHT22;2265;48.794;9.520;2022-12-18T05:45:56;-7.70;98.00
4505;DHT22;2265;48.794;9.520;2022-12-18T05:48:24;-7.80;98.00
4505;DHT22;2265;48.794;9.520;2022-12-18T05:50:52;-7.70;98.00
4505;DHT22;2265;48.794;9.520;2022-12-18T05:53:19;-7.70;98.00
4505;DHT22;2265;48.794;9.520;2022-12-18T05:55:47;-7.70;98.00
4505;DHT22;2265;48.794;9.520;2022-12-18T05:58:14;-7.50;98.00
4505;DHT22;2265;48.794;9.520;2022-12-18T06:00:45;-7.60;98.00
4505;DHT22;2265;48.794;9.520;2022-12-18T06:03:13;-7.50;98.00
4505;DHT22;2265;48.794;9.520;2022-12-18T06:05:42;-7.50;98.00
4505;DHT22;2265;48.794;9.520;2022-12-18T06:08:10;-7.50;98.00
4505;DHT22;2265;48.794;9.520;2022-12-18T06:10:37;-7.50;98.00
4505;DHT22;2265;48.794;9.520;2022-12-18T06:13:05;-7.40;98.00
4505;DHT22;2265;48.794;9.520;2022-12-18T06:15:36;-7.40;98.00
4505;DHT22;2265;48.794;9.520;2022-12-18T06:18:05;-7.40;98.00
4505;DHT22;2265;48.794;9.520;2022-12-18T06:20:32;-7.40;98.00
4505;DHT22;2265;48.794;9.520;2022-12-18T06:23:02;-7.40;98.00
4505;DHT22;2265;48.794;9.520;2022-12-18T06:25:29;-7.40;98.00
4505;DHT22;2265;48.794;9.520;2022-12-18T06:27:57;-7.30;98.00
4505;DHT22;2265;48.794;9.520;2022-12-18T06:30:24;-7.30;98.00
4505;DHT22;2265;48.794;9.520;2022-12-18T06:32:52;-7.20;98.00
4505;DHT22;2265;48.794;9.520;2022-12-18T06:35:21;-7.20;98.00
4505;DHT22;2265;48.794;9.520;2022-12-18T06:37:48;-7.30;98.00
4505;DHT22;2265;48.794;9.520;2022-12-18T06:40:15;-7.30;98.00
4505;DHT22;2265;48.794;9.520;2022-12-18T06:42:42;-7.30;98.00
4505;DHT22;2265;48.794;9.520;2022-12-18T06:45:10;-7.40;98.00
4505;DHT22;2265;48.794;9.520;2022-12-18T06:47:44;-7.40;98.00
4505;DHT22;2265;48.794;9.520;2022-12-18T06:50:12;-7.40;98.00
4505;DHT22;2265;48.794;9.520;2022-12-18T06:52:44;-7.40;98.00
4505;DHT22;2265;48.794;9.520;2022-12-18T06:55:12;-7.30;98.00
4505;DHT22;2265;48.794;9.520;2022-12-18T06:57:39;-7.20;98.00
4505;DHT22;2265;48.794;9.520;2022-12-18T07:00:07;-7.10;98.00
4505;DHT22;2265;48.794;9.520;2022-12-18T07:02:34;-7.10;98.00
4505;DHT22;2265;48.794;9.520;2022-12-18T07:05:02;-7.10;98.00
4505;DHT22;2265;48.794;9.520;2022-12-18T07:07:29;-6.90;98.00
4505;DHT22;2265;48.794;9.520;2022-12-18T07:09:58;-6.80;98.00
4505;DHT22;2265;48.794;9.520;2022-12-18T07:12:27;-6.70;98.00
4505;DHT22;2265;48.794;9.520;2022-12-18T07:14:54;-6.90;98.00
4505;DHT22;2265;48.794;9.520;2022-12-18T07:17:21;-7.00;98.00
4505;DHT22;2265;48.794;9.520;2022-12-18T07:19:49;-7.10;98.00
4505;DHT22;2265;48.794;9.520;2022-12-18T07:22:16;-7.10;98.00
4505;DHT22;2265;48.794;9.520;2022-12-18T07:24:43;-7.00;98.00
4505;DHT22;2265;48.794;9.520;2022-12-18T07:27:12;-7.00;98.00
4505;DHT22;2265;48.794;9.520;2022-12-18T07:29:39;-7.00;98.00
4505;DHT22;2265;48.794;9.520;2022-12-18T07:32:07;-6.80;98.00
4505;DHT22;2265;48.794;9.520;2022-12-18T07:34:34;-6.80;98.00
4505;DHT22;2265;48.794;9.520;2022-12-18T07:37:01;-6.70;98.00
4505;DHT22;2265;48.794;9.520;2022-12-18T07:39:28;-6.70;98.00
4505;DHT22;2265;48.794;9.520;2022-12-18T07:41:56;-6.70;98.00
4505;DHT22;2265;48.794;9.520;2022-12-18T07:44:43;-6.70;98.00
4505;DHT22;2265;48.794;9.520;2022-12-18T07:47:10;-6.50;98.00
4505;DHT22;2265;48.794;9.520;2022-12-18T07:49:37;-6.50;98.00
4505;DHT22;2265;48.794;9.520;2022-12-18T07:52:05;-6.40;98.00
4505;DHT22;2265;48.794;9.520;2022-12-18T07:54:32;-6.20;98.00
4505;DHT22;2265;48.794;9.520;2022-12-18T07:56:59;-6.10;98.00
4505;DHT22;2265;48.794;9.520;2022-12-18T07:59:27;-6.00;98.00
4505;DHT22;2265;48.794;9.520;2022-12-18T08:01:55;-6.00;98.00
4505;DHT22;2265;48.794;9.520;2022-12-18T08:04:22;-5.90;98.00
4505;DHT22;2265;48.794;9.520;2022-12-18T08:06:49;-5.90;98.00
4505;DHT22;2265;48.794;9.520;2022-12-18T08:09:16;-5.90;98.00
4505;DHT22;2265;48.794;9.520;2022-12-18T08:11:44;-5.90;98.00
4505;DHT22;2265;48.794;9.520;2022-12-18T08:14:11;-5.70;98.00
4505;DHT22;2265;48.794;9.520;2022-12-18T08:16:39;-5.70;98.00
4505;DHT22;2265;48.794;9.520;2022-12-18T08:19:07;-5.60;98.00
4505;DHT22;2265;48.794;9.520;2022-12-18T08:21:37;-5.60;98.00
4505;DHT22;2265;48.794;9.520;2022-12-18T08:24:09;-5.50;98.00
4505;DHT22;2265;48.794;9.520;2022-12-18T08:26:36;-5.50;98.00
4505;DHT22;2265;48.794;9.520;2022-12-18T08:29:03;-5.60;98.00
4505;DHT22;2265;48.794;9.520;2022-12-18T08:31:31;-5.60;98.00
4505;DHT22;2265;48.794;9.520;2022-12-18T08:33:58;-5.60;98.00
4505;DHT22;2265;48.794;9.520;2022-12-18T08:36:26;-5.60;98.00
4505;DHT22;2265;48.794;9.520;2022-12-18T08:38:54;-5.50;98.00
4505;DHT22;2265;48.794;9.520;2022-12-18T08:41:22;-5.50;98.00
4505;DHT22;2265;48.794;9.520;2022-12-18T08:43:49;-5.40;98.00
4505;DHT22;2265;48.794;9.520;2022-12-18T08:46:36;-5.20;98.00
4505;DHT22;2265;48.794;9.520;2022-12-18T08:49:05;-5.00;98.00
4505;DHT22;2265;48.794;9.520;2022-12-18T08:51:34;-4.90;98.00
4505;DHT22;2265;48.794;9.520;2022-12-18T08:54:02;-4.80;98.00
4505;DHT22;2265;48.794;9.520;2022-12-18T08:56:30;-4.70;98.00
4505;DHT22;2265;48.794;9.520;2022-12-18T08:58:58;-4.80;98.00
4505;DHT22;2265;48.794;9.520;2022-12-18T09:01:25;-4.60;98.00
4505;DHT22;2265;48.794;9.520;2022-12-18T09:03:52;-4.60;98.00
4505;DHT22;2265;48.794;9.520;2022-12-18T09:06:21;-4.50;98.00
4505;DHT22;2265;48.794;9.520;2022-12-18T09:08:50;-4.50;98.00
4505;DHT22;2265;48.794;9.520;2022-12-18T09:11:23;-4.50;98.00
4505;DHT22;2265;48.794;9.520;2022-12-18T09:13:52;-4.50;98.00
4505;DHT22;2265;48.794;9.520;2022-12-18T09:16:19;-4.40;98.00
4505;DHT22;2265;48.794;9.520;2022-12-18T09:18:47;-4.40;98.00
4505;DHT22;2265;48.794;9.520;2022-12-18T09:21:15;-4.40;98.00
4505;DHT22;2265;48.794;9.520;2022-12-18T09:23:44;-4.40;98.00
4505;DHT22;2265;48.794;9.520;2022-12-18T09:26:17;-4.30;98.00
4505;DHT22;2265;48.794;9.520;2022-12-18T09:28:44;-4.30;98.00
4505;DHT22;2265;48.794;9.520;2022-12-18T09:31:12;-4.30;98.00
4505;DHT22;2265;48.794;9.520;2022-12-18T09:33:42;-4.10;98.00
4505;DHT22;2265;48.794;9.520;2022-12-18T09:36:15;-4.10;98.00
4505;DHT22;2265;48.794;9.520;2022-12-18T09:38:42;-4.00;98.00
4505;DHT22;2265;48.794;9.520;2022-12-18T09:41:23;-3.90;98.00
4505;DHT22;2265;48.794;9.520;2022-12-18T09:43:55;-3.80;98.00
4505;DHT22;2265;48.794;9.520;2022-12-18T09:46:28;-3.70;98.00
4505;DHT22;2265;48.794;9.520;2022-12-18T09:48:59;-3.60;98.00
4505;DHT22;2265;48.794;9.520;2022-12-18T09:51:30;-3.50;98.00
4505;DHT22;2265;48.794;9.520;2022-12-18T09:54:03;-3.40;98.00
4505;DHT22;2265;48.794;9.520;2022-12-18T09:56:36;-3.30;98.00
4505;DHT22;2265;48.794;9.520;2022-12-18T09:59:04;-3.20;98.00
4505;DHT22;2265;48.794;9.520;2022-12-18T10:01:33;-3.10;98.00
4505;DHT22;2265;48.794;9.520;2022-12-18T10:04:00;-3.00;98.00
4505;DHT22;2265;48.794;9.520;2022-12-18T10:06:30;-2.90;98.00
4505;DHT22;2265;48.794;9.520;2022-12-18T10:09:02;-2.90;98.00
4505;DHT22;2265;48.794;9.520;2022-12-18T10:11:40;-2.80;98.00
4505;DHT22;2265;48.794;9.520;2022-12-18T10:14:16;-2.70;98.00
4505;DHT22;2265;48.794;9.520;2022-12-18T10:16:56;-2.60;98.00
4505;DHT22;2265;48.794;9.520;2022-12-18T10:19:34;-2.50;98.00
4505;DHT22;2265;48.794;9.520;2022-12-18T10:22:15;-2.40;98.00
4505;DHT22;2265;48.794;9.520;2022-12-18T10:24:47;-2.30;98.00
4505;DHT22;2265;48.794;9.520;2022-12-18T10:27:21;-2.30;98.00
4505;DHT22;2265;48.794;9.520;2022-12-18T10:29:49;-2.30;98.00
4505;DHT22;2265;48.794;9.520;2022-12-18T10:32:19;-2.30;98.00
4505;DHT22;2265;48.794;9.520;2022-12-18T10:34:47;-2.20;98.00
4505;DHT22;2265;48.794;9.520;2022-12-18T10:37:17;-2.10;98.00
4505;DHT22;2265;48.794;9.520;2022-12-18T10:39:45;-2.00;98.00
4505;DHT22;2265;48.794;9.520;2022-12-18T10:42:18;-1.90;98.00
4505;DHT22;2265;48.794;9.520;2022-12-18T10:44:46;-1.90;98.00
4505;DHT22;2265;48.794;9.520;2022-12-18T10:47:31;-1.80;98.00
4505;DHT22;2265;48.794;9.520;2022-12-18T10:50:01;-1.60;98.00
4505;DHT22;2265;48.794;9.520;2022-12-18T10:52:30;-1.60;98.00
4505;DHT22;2265;48.794;9.520;2022-12-18T10:55:05;-1.50;98.00
4505;DHT22;2265;48.794;9.520;2022-12-18T10:57:43;-1.40;98.00
4505;DHT22;2265;48.794;9.520;2022-12-18T11:00:26;-1.30;98.00
4505;DHT22;2265;48.794;9.520;2022-12-18T11:02:54;-1.20;98.00
4505;DHT22;2265;48.794;9.520;2022-12-18T11:05:29;-1.10;98.00
4505;DHT22;2265;48.794;9.520;2022-12-18T11:07:58;-1.00;98.00
4505;DHT22;2265;48.794;9.520;2022-12-18T11:10:28;-0.90;98.00
4505;DHT22;2265;48.794;9.520;2022-12-18T11:13:10;-0.80;98.00
4505;DHT22;2265;48.794;9.520;2022-12-18T11:15:40;-0.60;98.00
4505;DHT22;2265;48.794;9.520;2022-12-18T11:18:16;-0.50;98.00
4505;DHT22;2265;48.794;9.520;2022-12-18T11:20:50;-0.30;98.00
4505;DHT22;2265;48.794;9.520;2022-12-18T11:23:19;-0.10;98.00
4505;DHT22;2265;48.794;9.520;2022-12-18T11:25:54;0.00;98.00
4505;DHT22;2265;48.794;9.520;2022-12-18T11:28:37;0.20;98.00
4505;DHT22;2265;48.794;9.520;2022-12-18T11:31:24;0.20;98.00
4505;DHT22;2265;48.794;9.520;2022-12-18T11:33:57;0.20;98.00
4505;DHT22;2265;48.794;9.520;2022-12-18T11:36:28;0.30;98.00
4505;DHT22;2265;48.794;9.520;2022-12-18T11:39:00;0.30;98.00
4505;DHT22;2265;48.794;9.520;2022-12-18T11:41:32;0.20;98.00
4505;DHT22;2265;48.794;9.520;2022-12-18T11:44:25;0.20;98.00
4505;DHT22;2265;48.794;9.520;2022-12-18T11:46:56;0.20;98.00
4505;DHT22;2265;48.794;9.520;2022-12-18T11:49:30;0.30;98.00
4505;DHT22;2265;48.794;9.520;2022-12-18T11:52:09;0.50;98.00
4505;DHT22;2265;48.794;9.520;2022-12-18T11:54:36;0.70;98.00
4505;DHT22;2265;48.794;9.520;2022-12-18T11:57:11;0.70;98.00
4505;DHT22;2265;48.794;9.520;2022-12-18T11:59:51;0.70;98.00
4505;DHT22;2265;48.794;9.520;2022-12-18T12:05:34;0.70;98.00
4505;DHT22;2265;48.794;9.520;2022-12-18T12:08:08;0.70;98.00
4505;DHT22;2265;48.794;9.520;2022-12-18T12:10:46;0.70;98.00
4505;DHT22;2265;48.794;9.520;2022-12-18T12:13:28;0.80;98.00
4505;DHT22;2265;48.794;9.520;2022-12-18T12:16:08;0.90;98.00
4505;DHT22;2265;48.794;9.520;2022-12-18T12:18:48;0.90;98.00
4505;DHT22;2265;48.794;9.520;2022-12-18T12:21:25;1.00;98.00
4505;DHT22;2265;48.794;9.520;2022-12-18T12:23:59;1.20;98.00
4505;DHT22;2265;48.794;9.520;2022-12-18T12:26:35;1.30;98.00
4505;DHT22;2265;48.794;9.520;2022-12-18T12:29:16;1.40;98.00
4505;DHT22;2265;48.794;9.520;2022-12-18T12:32:03;1.50;98.00
4505;DHT22;2265;48.794;9.520;2022-12-18T12:34:36;1.60;98.00
4505;DHT22;2265;48.794;9.520;2022-12-18T12:37:20;1.80;98.00
4505;DHT22;2265;48.794;9.520;2022-12-18T12:39:49;1.80;98.00
4505;DHT22;2265;48.794;9.520;2022-12-18T12:42:23;1.90;98.00
4505;DHT22;2265;48.794;9.520;2022-12-18T12:45:18;2.00;98.00
4505;DHT22;2265;48.794;9.520;2022-12-18T12:47:49;2.10;98.00
4505;DHT22;2265;48.794;9.520;2022-12-18T12:50:19;2.10;98.00
4505;DHT22;2265;48.794;9.520;2022-12-18T12:52:49;2.10;98.00
4505;DHT22;2265;48.794;9.520;2022-12-18T12:55:20;2.00;98.00
4505;DHT22;2265;48.794;9.520;2022-12-18T12:57:54;2.00;98.00
4505;DHT22;2265;48.794;9.520;2022-12-18T13:00:25;1.90;98.00
4505;DHT22;2265;48.794;9.520;2022-12-18T13:03:01;1.80;98.00
4505;DHT22;2265;48.794;9.520;2022-12-18T13:05:34;1.70;98.00
4505;DHT22;2265;48.794;9.520;2022-12-18T13:08:08;1.70;98.00
4505;DHT22;2265;48.794;9.520;2022-12-18T13:10:36;1.60;98.00
4505;DHT22;2265;48.794;9.520;2022-12-18T13:13:05;1.40;98.00
4505;DHT22;2265;48.794;9.520;2022-12-18T13:15:38;1.40;98.00
4505;DHT22;2265;48.794;9.520;2022-12-18T13:18:14;1.40;98.00
4505;DHT22;2265;48.794;9.520;2022-12-18T13:20:44;1.30;98.00
4505;DHT22;2265;48.794;9.520;2022-12-18T13:23:35;1.20;98.00
4505;DHT22;2265;48.794;9.520;2022-12-18T13:26:29;1.20;98.00
4505;DHT22;2265;48.794;9.520;2022-12-18T13:28:57;1.30;98.00
4505;DHT22;2265;48.794;9.520;2022-12-18T13:34:36;1.20;98.00
4505;DHT22;2265;48.794;9.520;2022-12-18T13:37:41;1.10;98.00
4505;DHT22;2265;48.794;9.520;2022-12-18T13:43:33;0.90;98.00
4505;DHT22;2265;48.794;9.520;2022-12-18T13:46:16;0.80;98.00
4505;DHT22;2265;48.794;9.520;2022-12-18T13:48:51;0.80;98.00
4505;DHT22;2265;48.794;9.520;2022-12-18T13:51:21;0.80;98.00
4505;DHT22;2265;48.794;9.520;2022-12-18T13:53:51;0.90;98.00
4505;DHT22;2265;48.794;9.520;2022-12-18T13:56:23;0.90;98.00
4505;DHT22;2265;48.794;9.520;2022-12-18T13:59:11;0.80;98.00
4505;DHT22;2265;48.794;9.520;2022-12-18T14:01:46;0.80;98.00
4505;DHT22;2265;48.794;9.520;2022-12-18T14:04:24;0.70;98.00
4505;DHT22;2265;48.794;9.520;2022-12-18T14:06:57;0.70;98.00
4505;DHT22;2265;48.794;9.520;2022-12-18T14:09:28;0.60;98.00
4505;DHT22;2265;48.794;9.520;2022-12-18T14:11:56;0.60;98.00
4505;DHT22;2265;48.794;9.520;2022-12-18T14:14:41;0.60;98.00
4505;DHT22;2265;48.794;9.520;2022-12-18T14:17:10;0.50;98.00
4505;DHT22;2265;48.794;9.520;2022-12-18T14:19:40;0.50;98.00
4505;DHT22;2265;48.794;9.520;2022-12-18T14:22:15;0.40;98.00
4505;DHT22;2265;48.794;9.520;2022-12-18T14:24:43;0.40;98.00
4505;DHT22;2265;48.794;9.520;2022-12-18T14:27:20;0.30;98.00
4505;DHT22;2265;48.794;9.520;2022-12-18T14:29:47;0.20;98.00
4505;DHT22;2265;48.794;9.520;2022-12-18T14:32:16;0.20;98.00
4505;DHT22;2265;48.794;9.520;2022-12-18T14:34:48;0.10;98.00
4505;DHT22;2265;48.794;9.520;2022-12-18T14:37:20;0.00;98.00
4505;DHT22;2265;48.794;9.520;2022-12-18T14:39:56;0.00;98.00
4505;DHT22;2265;48.794;9.520;2022-12-18T14:42:24;-0.10;98.00
4505;DHT22;2265;48.794;9.520;2022-12-18T14:45:32;-0.20;98.00
4505;DHT22;2265;48.794;9.520;2022-12-18T14:47:59;-0.30;98.00
4505;DHT22;2265;48.794;9.520;2022-12-18T14:50:28;-0.40;98.00
4505;DHT22;2265;48.794;9.520;2022-12-18T14:52:57;-0.50;98.00
4505;DHT22;2265;48.794;9.520;2022-12-18T14:55:25;-0.50;98.00
4505;DHT22;2265;48.794;9.520;2022-12-18T14:57:54;-0.60;98.00
4505;DHT22;2265;48.794;9.520;2022-12-18T15:00:25;-0.70;98.00
4505;DHT22;2265;48.794;9.520;2022-12-18T15:03:00;-0.70;98.00
4505;DHT22;2265;48.794;9.520;2022-12-18T15:05:29;-0.80;98.00
4505;DHT22;2265;48.794;9.520;2022-12-18T15:07:59;-0.80;98.00
4505;DHT22;2265;48.794;9.520;2022-12-18T15:10:28;-0.80;98.00
4505;DHT22;2265;48.794;9.520;2022-12-18T15:13:08;-0.80;98.00
4505;DHT22;2265;48.794;9.520;2022-12-18T15:15:46;-1.00;98.00
4505;DHT22;2265;48.794;9.520;2022-12-18T15:18:15;-1.10;98.00
4505;DHT22;2265;48.794;9.520;2022-12-18T15:20:45;-1.10;98.00
4505;DHT22;2265;48.794;9.520;2022-12-18T15:23:17;-1.20;98.00
4505;DHT22;2265;48.794;9.520;2022-12-18T15:25:48;-1.30;98.00
4505;DHT22;2265;48.794;9.520;2022-12-18T15:28:25;-1.30;98.00
4505;DHT22;2265;48.794;9.520;2022-12-18T15:31:01;-1.40;98.00
4505;DHT22;2265;48.794;9.520;2022-12-18T15:33:31;-1.40;98.00
4505;DHT22;2265;48.794;9.520;2022-12-18T15:36:00;-1.50;98.00
4505;DHT22;2265;48.794;9.520;2022-12-18T15:38:29;-1.50;98.00
4505;DHT22;2265;48.794;9.520;2022-12-18T15:40:57;-1.50;98.00
4505;DHT22;2265;48.794;9.520;2022-12-18T15:43:25;-1.50;98.00
4505;DHT22;2265;48.794;9.520;2022-12-18T15:46:01;-1.50;98.00
4505;DHT22;2265;48.794;9.520;2022-12-18T15:48:28;-1.50;98.00
4505;DHT22;2265;48.794;9.520;2022-12-18T15:50:56;-1.50;98.00
4505;DHT22;2265;48.794;9.520;2022-12-18T15:53:26;-1.60;98.00
4505;DHT22;2265;48.794;9.520;2022-12-18T15:55:57;-1.70;98.00
4505;DHT22;2265;48.794;9.520;2022-12-18T15:58:42;-1.70;98.00
4505;DHT22;2265;48.794;9.520;2022-12-18T16:01:09;-1.80;98.00
4505;DHT22;2265;48.794;9.520;2022-12-18T16:03:37;-1.80;98.00
4505;DHT22;2265;48.794;9.520;2022-12-18T16:06:05;-1.80;98.00
4505;DHT22;2265;48.794;9.520;2022-12-18T16:08:32;-1.80;98.00
4505;DHT22;2265;48.794;9.520;2022-12-18T16:11:02;-1.90;98.00
4505;DHT22;2265;48.794;9.520;2022-12-18T16:13:29;-2.00;98.00
4505;DHT22;2265;48.794;9.520;2022-12-18T16:15:56;-2.00;98.00
4505;DHT22;2265;48.794;9.520;2022-12-18T16:18:23;-2.10;98.00
4505;DHT22;2265;48.794;9.520;2022-12-18T16:20:50;-2.20;98.00
4505;DHT22;2265;48.794;9.520;2022-12-18T16:23:17;-2.20;98.00
4505;DHT22;2265;48.794;9.520;2022-12-18T16:25:44;-2.20;98.00
4505;DHT22;2265;48.794;9.520;2022-12-18T16:28:14;-2.20;98.00
4505;DHT22;2265;48.794;9.520;2022-12-18T16:30:42;-2.10;98.00
4505;DHT22;2265;48.794;9.520;2022-12-18T16:33:11;-2.10;98.00
4505;DHT22;2265;48.794;9.520;2022-12-18T16:35:38;-2.10;98.00
4505;DHT22;2265;48.794;9.520;2022-12-18T16:38:05;-2.10;98.00
4505;DHT22;2265;48.794;9.520;2022-12-18T16:40:32;-2.20;98.00